Time;durP1;ratioP1;P1;durP2;ratioP2;P2;SDS_P1;SDS_P2;PMS_P1;PMS_P2;Temp;Humidity;BMP_temperature;BMP_pressure;BME280_temperature;BME280_humidity;BME280_pressure;Samples;Min_cycle;Max_cycle;Signal;HPM_P1;HPM_P2
2023/02/01 00:01:35;;;;;;;9.25;5.00;;;;;;;7.77;69.02;97817.41;4940814;28;20278;-76
2023/02/01 00:04:00;;;;;;;9.50;5.05;;;;;;;7.80;69.57;97805.84;4925837;28;20196;-76
2023/02/01 00:06:25;;;;;;;7.95;4.90;;;;;;;7.82;68.68;97803.81;4943900;28;20180;-77
2023/02/01 00:08:55;;;;;;;8.45;5.25;;;;;;;7.90;68.80;97795.78;4940837;28;20275;-76
2023/02/01 00:11:21;;;;;;;7.28;5.07;;;;;;;7.60;69.83;97790.41;4937837;28;20269;-76
2023/02/01 00:13:46;;;;;;;8.98;4.72;;;;;;;7.78;68.76;97797.44;4940948;28;20196;-76
2023/02/01 00:16:17;;;;;;;6.82;4.45;;;;;;;7.82;69.05;97776.09;4933794;28;20664;-75
2023/02/01 00:18:47;;;;;;;7.80;4.38;;;;;;;7.57;69.89;97760.50;4925473;28;20041;-76
2023/02/01 00:21:14;;;;;;;9.07;4.32;;;;;;;7.48;69.96;97756.59;4944600;28;20278;-76
2023/02/01 00:23:40;;;;;;;7.97;4.47;;;;;;;7.53;69.49;97769.72;4927290;28;20594;-76
2023/02/01 00:26:06;;;;;;;9.48;4.97;;;;;;;7.60;69.71;97754.91;4927459;28;20289;-77
2023/02/01 00:28:32;;;;;;;6.70;4.47;;;;;;;7.42;69.61;97747.06;4941078;28;20578;-76
2023/02/01 00:31:01;;;;;;;7.50;3.83;;;;;;;7.71;69.67;97756.06;4922644;28;20347;-76
2023/02/01 00:33:28;;;;;;;6.25;4.13;;;;;;;7.71;68.86;97760.41;4914630;28;20364;-76
2023/02/01 00:36:04;;;;;;;7.40;3.85;;;;;;;7.79;68.86;97750.59;4931858;28;20219;-76
2023/02/01 00:38:30;;;;;;;7.25;4.38;;;;;;;7.46;69.86;97743.84;4932840;28;20188;-76
2023/02/01 00:41:02;;;;;;;7.85;4.32;;;;;;;7.25;71.40;97745.00;4950959;28;20614;-76
2023/02/01 00:43:27;;;;;;;9.77;4.95;;;;;;;7.09;71.94;97735.91;4903487;28;20749;-75
2023/02/01 00:45:53;;;;;;;9.70;5.13;;;;;;;7.54;70.16;97729.03;4930287;28;20290;-76
2023/02/01 00:48:18;;;;;;;9.02;4.78;;;;;;;7.45;70.35;97725.91;4930238;28;20336;-75
2023/02/01 00:50:44;;;;;;;9.57;4.75;;;;;;;7.43;70.51;97722.75;4925338;28;20153;-76
2023/02/01 00:53:10;;;;;;;7.93;4.55;;;;;;;7.32;71.11;97711.28;4907000;28;20290;-76
2023/02/01 00:55:35;;;;;;;12.48;5.85;;;;;;;7.44;69.99;97724.34;4928277;28;20334;-76
2023/02/01 00:58:01;;;;;;;9.13;5.43;;;;;;;7.54;70.31;97727.28;4932786;28;20256;-75
2023/02/01 01:00:26;;;;;;;8.98;4.82;;;;;;;7.26;71.46;97725.06;4938440;28;20604;-76
2023/02/01 01:02:51;;;;;;;9.48;5.65;;;;;;;7.53;70.45;97724.88;4927914;28;20271;-76
2023/02/01 01:05:17;;;;;;;7.88;5.10;;;;;;;7.53;70.28;97725.66;4935330;28;20195;-76
2023/02/01 01:07:42;;;;;;;10.38;5.22;;;;;;;7.42;70.65;97723.75;4914673;28;20219;-76
2023/02/01 01:10:08;;;;;;;7.78;4.90;;;;;;;7.52;70.39;97731.06;4941985;28;20318;-76
2023/02/01 01:12:33;;;;;;;7.53;5.00;;;;;;;7.66;69.89;97733.34;4920431;28;20800;-76
2023/02/01 01:14:58;;;;;;;9.18;4.80;;;;;;;7.55;70.26;97726.25;4940283;28;20172;-76
2023/02/01 01:17:24;;;;;;;10.23;5.38;;;;;;;7.60;69.48;97726.41;4946634;28;20641;-76
2023/02/01 01:19:49;;;;;;;6.63;4.30;;;;;;;7.59;69.56;97730.03;4951972;28;20547;-76
2023/02/01 01:22:14;;;;;;;12.52;5.38;;;;;;;7.77;69.48;97738.84;4937453;28;20270;-76
2023/02/01 01:24:40;;;;;;;8.48;5.07;;;;;;;7.89;68.87;97750.13;4928193;28;20161;-76
2023/02/01 01:27:05;;;;;;;9.60;5.30;;;;;;;7.95;68.52;97751.06;4946063;28;20259;-76
2023/02/01 01:29:30;;;;;;;10.18;5.13;;;;;;;7.73;69.71;97748.03;4946961;28;20426;-76
2023/02/01 01:31:56;;;;;;;8.02;4.90;;;;;;;7.62;69.29;97729.56;4929677;28;20202;-76
2023/02/01 01:34:21;;;;;;;6.43;4.97;;;;;;;7.60;69.58;97716.03;4928431;28;20274;-76
2023/02/01 01:36:46;;;;;;;10.85;4.80;;;;;;;7.53;70.21;97712.72;4944539;28;20265;-76
2023/02/01 01:39:12;;;;;;;9.70;4.75;;;;;;;7.40;70.93;97712.81;4930701;28;20296;-76
2023/02/01 01:41:37;;;;;;;8.10;5.20;;;;;;;7.55;69.66;97705.50;4939923;28;20365;-77
2023/02/01 01:44:05;;;;;;;10.15;5.40;;;;;;;7.59;70.39;97711.06;4941571;28;20181;-76
2023/02/01 01:46:40;;;;;;;9.05;4.80;;;;;;;7.65;70.20;97728.38;4944731;28;20610;-76
2023/02/01 01:49:05;;;;;;;;;;;;;;;7.97;69.27;97728.28;4910787;28;20310;-76
2023/02/01 01:51:32;;;;;;;9.85;5.60;;;;;;;7.72;69.96;97731.69;4946317;28;20056;-76
2023/02/01 01:54:12;;;;;;;13.85;6.75;;;;;;;7.77;69.56;97728.47;4929602;28;20203;-75
2023/02/01 01:56:38;;;;;;;10.23;5.85;;;;;;;7.71;69.96;97727.53;4911375;28;20642;-76
2023/02/01 01:59:05;;;;;;;12.30;5.95;;;;;;;7.61;70.18;97737.59;4930694;28;20166;-76
2023/02/01 02:01:31;;;;;;;11.25;6.43;;;;;;;7.75;69.74;97736.47;4939191;28;20208;-76
2023/02/01 02:03:57;;;;;;;11.07;5.72;;;;;;;7.59;70.10;97737.78;4917557;28;20282;-75
2023/02/01 02:06:22;;;;;;;11.48;5.55;;;;;;;7.53;71.02;97743.81;4934396;28;20314;-76
2023/02/01 02:08:47;;;;;;;10.00;6.70;;;;;;;7.59;70.42;97742.97;4946600;28;20254;-75
2023/02/01 02:11:16;;;;;;;10.27;5.40;;;;;;;7.79;70.33;97747.19;4942204;28;20821;-75
2023/02/01 02:13:46;;;;;;;10.90;5.63;;;;;;;7.74;70.51;97745.25;4924263;28;20157;-75
2023/02/01 02:16:25;;;;;;;6.95;4.50;;;;;;;7.90;69.75;97740.53;4926629;28;20253;-76
2023/02/01 02:19:18;;;;;;;10.00;5.40;;;;;;;7.93;69.50;97733.13;4939724;28;20630;-76
2023/02/01 02:22:02;;;;;;;6.43;4.60;;;;;;;7.99;69.38;97715.94;4927707;28;20457;-75
2023/02/01 02:24:49;;;;;;;9.05;5.20;;;;;;;7.85;69.82;97717.84;4929927;28;20208;-76
2023/02/01 02:27:25;;;;;;;8.18;4.20;;;;;;;7.96;69.66;97724.91;4944507;28;20257;-76
2023/02/01 02:29:56;;;;;;;9.73;4.90;;;;;;;7.99;69.02;97732.28;4944283;28;20615;-75
2023/02/01 02:32:43;;;;;;;7.97;4.70;;;;;;;7.93;69.43;97727.94;4945745;28;20110;-76
2023/02/01 02:35:30;;;;;;;10.27;5.05;;;;;;;7.80;69.69;97720.28;4938235;28;20315;-75
2023/02/01 02:38:01;;;;;;;10.35;5.22;;;;;;;7.96;69.72;97706.75;4922523;28;20205;-75
2023/02/01 02:40:37;;;;;;;11.93;5.57;;;;;;;7.81;69.56;97693.34;4944317;28;20646;-76
2023/02/01 02:49:09;;;;;;;10.90;6.05;;;;;;;7.83;70.02;97671.41;4941512;28;20171;-76
2023/02/01 02:54:47;;;;;;;12.30;5.80;;;;;;;7.69;70.54;97662.97;4926224;28;20187;-76
2023/02/01 03:05:44;;;;;;;11.98;6.15;;;;;;;7.53;71.25;97665.28;4930427;28;20192;-75
2023/02/01 03:08:11;;;;;;;10.35;6.22;;;;;;;7.54;70.89;97646.94;4943100;28;20611;-76
2023/02/01 03:10:55;;;;;;;13.43;6.10;;;;;;;7.68;70.68;97652.78;4942969;28;20270;-75
2023/02/01 03:13:28;;;;;;;12.15;6.85;;;;;;;7.79;70.06;97652.06;4919891;28;20245;-75
2023/02/01 03:16:00;;;;;;;15.48;7.03;;;;;;;7.29;72.15;97659.88;4939079;28;20321;-75
2023/02/01 03:18:38;;;;;;;12.18;6.10;;;;;;;7.59;71.08;97639.31;4928456;28;20270;-75
2023/02/01 03:21:08;;;;;;;11.77;5.93;;;;;;;7.45;71.88;97654.19;4942336;28;20237;-75
2023/02/01 03:23:35;;;;;;;14.05;7.28;;;;;;;7.41;72.23;97652.22;4927221;28;20211;-75
2023/02/01 03:26:01;;;;;;;12.55;6.65;;;;;;;7.43;72.26;97651.00;4943846;28;20592;-76
2023/02/01 03:28:30;;;;;;;14.02;6.68;;;;;;;7.46;71.91;97666.13;4944823;28;20207;-76
2023/02/01 03:30:55;;;;;;;13.73;6.55;;;;;;;7.42;72.40;97658.97;4926471;28;20641;-75
2023/02/01 03:33:23;;;;;;;15.98;6.50;;;;;;;7.61;71.62;97671.00;4919773;28;20286;-75
2023/02/01 03:36:06;;;;;;;12.32;5.85;;;;;;;7.72;71.40;97669.50;4942657;28;20207;-75
2023/02/01 03:38:54;;;;;;;9.05;5.50;;;;;;;7.83;69.87;97673.19;4915267;28;20203;-75
2023/02/01 03:41:35;;;;;;;9.07;5.05;;;;;;;7.61;70.89;97671.00;4940686;28;20200;-76
2023/02/01 03:44:13;;;;;;;8.50;4.35;;;;;;;7.74;70.22;97669.28;4906332;28;20267;-76
2023/02/01 03:47:04;;;;;;;9.82;4.50;;;;;;;7.70;70.48;97671.50;4939231;28;20293;-75
2023/02/01 03:49:31;;;;;;;8.48;4.60;;;;;;;7.72;70.37;97681.66;4932675;28;20267;-76
2023/02/01 03:51:58;;;;;;;11.27;5.63;;;;;;;7.73;70.28;97691.00;4925819;28;20288;-77
2023/02/01 03:54:24;;;;;;;9.55;5.80;;;;;;;7.80;69.45;97681.41;4945729;28;20803;-76
2023/02/01 03:56:50;;;;;;;12.50;5.03;;;;;;;7.83;69.86;97686.13;4928548;28;20203;-78
2023/02/01 03:59:16;;;;;;;11.35;5.95;;;;;;;7.98;69.42;97683.22;4942668;28;20127;-78
2023/02/01 04:01:41;;;;;;;12.90;6.38;;;;;;;7.96;69.08;97693.78;4943951;28;20207;-78
2023/02/01 04:04:07;;;;;;;9.30;5.57;;;;;;;7.93;68.54;97689.03;4923678;28;20633;-78
2023/02/01 04:06:32;;;;;;;9.77;5.30;;;;;;;7.99;68.80;97690.78;4943022;28;20293;-75
2023/02/01 04:08:57;;;;;;;12.13;5.75;;;;;;;7.97;68.79;97682.44;4921075;28;20207;-75
2023/02/01 04:11:23;;;;;;;11.25;5.80;;;;;;;8.03;68.03;97691.94;4927476;28;20386;-76
2023/02/01 04:13:48;;;;;;;9.88;5.45;;;;;;;8.00;68.36;97676.81;4928896;28;20611;-76
2023/02/01 04:16:14;;;;;;;10.27;5.55;;;;;;;8.05;68.66;97705.50;4950295;28;20378;-75
2023/02/01 04:18:39;;;;;;;8.95;5.28;;;;;;;8.12;68.51;97708.00;4916494;28;20178;-75
2023/02/01 04:21:04;;;;;;;9.77;4.47;;;;;;;8.16;67.57;97713.56;4929647;28;20273;-76
2023/02/01 04:23:31;;;;;;;8.90;4.72;;;;;;;8.08;68.51;97709.44;4933933;28;20265;-77
2023/02/01 04:26:01;;;;;;;11.70;4.60;;;;;;;8.10;68.67;97707.44;4937970;28;20090;-77
2023/02/01 04:28:27;;;;;;;10.00;4.18;;;;;;;8.05;68.56;97694.31;4941401;28;20187;-78
2023/02/01 04:30:52;;;;;;;8.40;4.30;;;;;;;7.91;69.11;97698.84;4944239;28;20203;-75
2023/02/01 04:33:17;;;;;;;11.63;4.20;;;;;;;8.02;68.00;97697.31;4933668;28;20181;-78
2023/02/01 04:35:43;;;;;;;7.65;3.97;;;;;;;7.96;68.12;97705.97;4925314;28;20443;-77
2023/02/01 04:38:08;;;;;;;6.28;3.80;;;;;;;7.99;67.92;97695.97;4942926;28;20207;-77
2023/02/01 04:40:33;;;;;;;6.93;4.75;;;;;;;7.84;68.96;97693.69;4907130;28;20606;-77
2023/02/01 04:43:01;;;;;;;8.93;4.45;;;;;;;7.97;68.63;97692.81;4937057;28;20279;-77
2023/02/01 04:45:26;;;;;;;9.48;4.35;;;;;;;8.03;67.83;97697.13;4928315;28;20359;-78
2023/02/01 04:47:51;;;;;;;8.90;4.35;;;;;;;8.02;68.43;97692.94;4931612;28;20276;-78
2023/02/01 04:50:17;;;;;;;9.75;5.00;;;;;;;8.00;68.93;97697.56;4929212;28;20781;-77
2023/02/01 04:52:42;;;;;;;11.02;5.00;;;;;;;7.99;68.62;97706.34;4930601;28;20698;-77
2023/02/01 04:55:08;;;;;;;8.40;4.95;;;;;;;7.94;68.96;97708.00;4942991;28;20223;-77
2023/02/01 04:57:33;;;;;;;10.45;4.88;;;;;;;7.92;69.03;97712.59;4933417;28;20183;-78
2023/02/01 04:59:59;;;;;;;7.78;5.05;;;;;;;8.15;68.37;97711.97;4927670;28;20247;-77
2023/02/01 05:02:24;;;;;;;10.82;4.80;;;;;;;8.22;68.11;97712.69;4950262;28;20294;-75
2023/02/01 05:04:50;;;;;;;8.70;5.20;;;;;;;8.22;67.64;97715.28;4943495;28;20307;-75
2023/02/01 05:07:15;;;;;;;16.02;5.72;;;;;;;7.99;68.56;97708.16;4914993;28;20462;-76
2023/02/01 05:09:41;;;;;;;11.10;4.93;;;;;;;7.98;68.66;97716.94;4928612;28;20204;-75
2023/02/01 05:14:51;;;;;;;12.52;6.82;;;;;;;8.09;68.83;97699.84;4928635;28;20196;-75
2023/02/01 05:17:16;;;;;;;10.32;6.18;;;;;;;8.00;69.01;97701.94;4943850;28;20192;-75
2023/02/01 05:19:42;;;;;;;11.90;5.93;;;;;;;8.20;68.66;97701.75;4932332;28;20199;-76
2023/02/01 05:22:07;;;;;;;14.80;7.25;;;;;;;8.10;68.49;97711.84;4949894;28;20582;-76
2023/02/01 05:24:32;;;;;;;13.88;7.25;;;;;;;8.23;68.01;97706.50;4928898;28;20286;-76
2023/02/01 05:26:58;;;;;;;12.60;7.05;;;;;;;8.25;68.13;97709.69;4948219;28;20192;-75
2023/02/01 05:29:23;;;;;;;11.98;6.38;;;;;;;8.13;68.34;97712.19;4945556;28;20211;-76
2023/02/01 05:31:48;;;;;;;11.00;5.70;;;;;;;8.15;67.76;97711.97;4929635;28;20219;-75
2023/02/01 05:34:15;;;;;;;11.20;6.85;;;;;;;8.23;67.63;97707.31;4926335;28;20728;-76
2023/02/01 05:36:40;;;;;;;11.88;5.35;;;;;;;8.33;67.49;97714.59;4927227;28;20245;-75
2023/02/01 05:39:05;;;;;;;11.45;5.72;;;;;;;8.27;67.65;97712.84;4946319;28;20198;-76
2023/02/01 05:41:31;;;;;;;9.52;5.05;;;;;;;8.09;68.07;97712.81;4943854;28;20203;-75
2023/02/01 05:43:56;;;;;;;12.75;5.28;;;;;;;8.21;67.77;97709.31;4943474;28;20753;-76
2023/02/01 05:46:22;;;;;;;10.10;5.07;;;;;;;8.24;67.29;97698.53;4925772;28;20176;-76
2023/02/01 05:48:47;;;;;;;8.80;4.82;;;;;;;8.22;67.22;97687.53;4932276;28;20076;-75
2023/02/01 05:51:13;;;;;;;9.00;4.63;;;;;;;8.19;67.33;97697.56;4911120;28;20224;-76
2023/02/01 05:53:38;;;;;;;9.00;4.97;;;;;;;8.12;67.38;97695.03;4943087;28;20203;-75
2023/02/01 05:56:04;;;;;;;9.85;4.60;;;;;;;7.95;67.43;97700.00;4916284;28;20343;-76
2023/02/01 05:58:30;;;;;;;8.63;4.20;;;;;;;8.05;67.22;97710.69;4939241;28;20242;-75
2023/02/01 06:00:55;;;;;;;6.70;4.10;;;;;;;8.05;67.74;97697.72;4922738;28;20696;-75
2023/02/01 06:03:20;;;;;;;7.55;3.88;;;;;;;8.01;66.25;97699.13;4929684;28;20034;-75
2023/02/01 06:05:47;;;;;;;8.40;4.00;;;;;;;8.06;66.67;97706.28;4944208;28;20340;-76
2023/02/01 06:08:13;;;;;;;5.28;4.28;;;;;;;8.01;66.65;97704.31;4924202;28;20278;-75
2023/02/01 06:10:38;;;;;;;7.30;3.42;;;;;;;7.96;66.24;97717.13;4943445;28;20195;-76
2023/02/01 06:13:03;;;;;;;4.43;2.40;;;;;;;7.87;66.64;97723.59;4926662;28;20176;-75
2023/02/01 06:15:30;;;;;;;5.65;2.72;;;;;;;7.99;66.32;97741.88;4925396;28;20188;-75
2023/02/01 06:17:55;;;;;;;5.97;2.63;;;;;;;7.84;66.05;97742.97;4943983;28;20267;-75
2023/02/01 06:20:21;;;;;;;4.32;2.35;;;;;;;7.90;66.09;97737.94;4906831;28;20190;-76
2023/02/01 06:22:46;;;;;;;4.03;2.20;;;;;;;7.77;66.16;97723.31;4927885;28;20736;-75
2023/02/01 06:25:12;;;;;;;8.95;2.33;;;;;;;7.69;66.47;97732.94;4941191;28;20220;-75
2023/02/01 06:27:37;;;;;;;4.72;2.30;;;;;;;7.78;66.59;97727.47;4927683;28;20214;-75
2023/02/01 06:30:04;;;;;;;3.88;2.20;;;;;;;7.88;65.79;97735.56;4933568;28;20634;-76
2023/02/01 06:32:30;;;;;;;8.07;2.95;;;;;;;7.87;65.99;97728.78;4925920;28;20166;-76
2023/02/01 06:34:56;;;;;;;6.97;3.03;;;;;;;7.88;65.92;97723.41;4917064;28;20283;-76
2023/02/01 06:37:22;;;;;;;9.25;3.30;;;;;;;7.91;66.81;97722.16;4940376;28;20737;-76
2023/02/01 06:39:48;;;;;;;10.65;3.53;;;;;;;7.81;66.63;97721.84;4925967;28;20199;-76
2023/02/01 06:42:14;;;;;;;7.35;4.20;;;;;;;7.84;67.02;97729.22;4910595;28;20215;-75
2023/02/01 06:44:39;;;;;;;9.57;4.45;;;;;;;7.95;66.68;97725.94;4941808;28;20172;-76
2023/02/01 06:47:05;;;;;;;9.73;5.45;;;;;;;7.93;67.26;97719.38;4927706;28;20181;-75
2023/02/01 06:49:30;;;;;;;12.55;5.60;;;;;;;8.05;66.79;97722.84;4943864;28;20185;-76
2023/02/01 06:51:55;;;;;;;11.07;6.22;;;;;;;8.00;67.18;97713.13;4928617;28;20237;-75
2023/02/01 06:54:21;;;;;;;13.18;5.43;;;;;;;8.06;67.27;97720.03;4940533;28;20190;-76
2023/02/01 06:56:46;;;;;;;15.45;6.55;;;;;;;7.99;67.49;97716.72;4938962;28;20099;-76
2023/02/01 06:59:12;;;;;;;12.82;5.88;;;;;;;7.88;67.55;97717.41;4937196;28;20220;-76
2023/02/01 07:01:37;;;;;;;12.65;5.18;;;;;;;7.96;67.84;97714.53;4903594;28;20173;-76
2023/02/01 07:04:03;;;;;;;9.38;5.40;;;;;;;8.09;67.32;97720.59;4932033;28;20765;-76
2023/02/01 07:06:28;;;;;;;10.98;6.32;;;;;;;7.95;67.62;97725.13;4943938;28;20688;-75
2023/02/01 07:08:56;;;;;;;13.65;5.85;;;;;;;7.89;67.88;97724.19;4912543;28;20191;-75
2023/02/01 07:11:22;;;;;;;10.73;5.32;;;;;;;7.93;67.81;97727.16;4928935;28;20178;-75
2023/02/01 07:13:48;;;;;;;10.15;5.45;;;;;;;7.89;67.00;97729.38;4922756;28;20585;-75
2023/02/01 07:16:17;;;;;;;10.55;4.40;;;;;;;7.97;67.36;97736.06;4925677;28;20187;-76
2023/02/01 07:18:42;;;;;;;10.70;4.80;;;;;;;7.85;67.02;97733.41;4917452;28;20184;-76
2023/02/01 07:21:08;;;;;;;14.43;5.63;;;;;;;7.90;66.94;97737.94;4911692;28;20214;-75
2023/02/01 07:23:34;;;;;;;11.85;5.80;;;;;;;7.90;66.92;97733.56;4928463;28;20229;-76
2023/02/01 07:26:02;;;;;;;13.75;5.30;;;;;;;7.93;67.23;97721.97;4943798;28;20293;-75
2023/02/01 07:28:29;;;;;;;9.40;4.75;;;;;;;8.07;66.65;97721.63;4943767;28;20724;-76
2023/02/01 07:30:54;;;;;;;14.88;5.53;;;;;;;8.03;66.58;97727.44;4928342;28;20254;-76
2023/02/01 07:33:21;;;;;;;11.48;4.63;;;;;;;8.07;66.70;97734.59;4923329;28;20297;-76
2023/02/01 07:35:48;;;;;;;11.50;5.25;;;;;;;8.05;66.06;97741.81;4905769;28;20701;-75
2023/02/01 07:38:13;;;;;;;27.67;6.50;;;;;;;8.03;66.45;97743.78;4925716;28;20789;-77
2023/02/01 07:40:39;;;;;;;10.27;4.85;;;;;;;8.14;66.72;97733.72;4944719;28;20241;-78
2023/02/01 07:43:06;;;;;;;13.25;5.53;;;;;;;7.99;66.66;97731.50;4910458;28;20230;-77
2023/02/01 07:45:31;;;;;;;13.02;5.18;;;;;;;8.08;66.73;97727.59;4908092;28;20800;-76
2023/02/01 07:47:56;;;;;;;13.65;5.22;;;;;;;7.91;67.18;97731.75;4924851;28;20289;-75
2023/02/01 07:50:22;;;;;;;10.93;4.90;;;;;;;7.99;66.77;97741.88;4939878;28;20670;-76
2023/02/01 07:52:47;;;;;;;10.65;5.07;;;;;;;8.02;66.67;97737.03;4944211;28;20464;-76
2023/02/01 07:55:13;;;;;;;11.02;4.47;;;;;;;8.19;66.39;97731.28;4934424;28;20291;-75
2023/02/01 07:57:38;;;;;;;9.07;5.05;;;;;;;8.05;66.44;97744.41;4928249;28;20719;-76
2023/02/01 08:02:48;;;;;;;13.37;5.43;;;;;;;8.02;67.14;97747.41;4932895;28;20643;-75
2023/02/01 08:05:13;;;;;;;15.43;5.13;;;;;;;8.10;65.92;97745.53;4925244;28;20169;-75
2023/02/01 08:07:39;;;;;;;15.20;6.25;;;;;;;8.20;66.45;97746.63;4921035;28;20173;-75
2023/02/01 08:10:10;;;;;;;14.60;6.22;;;;;;;8.07;66.47;97755.34;4901134;28;20224;-75
2023/02/01 08:12:36;;;;;;;14.60;5.28;;;;;;;7.98;67.24;97761.00;4944487;28;20645;-75
2023/02/01 08:15:01;;;;;;;11.43;4.80;;;;;;;7.93;66.89;97763.44;4942077;28;20193;-76
2023/02/01 08:17:28;;;;;;;10.80;4.47;;;;;;;7.83;67.44;97771.69;4941806;28;20202;-75
2023/02/01 08:19:53;;;;;;;15.05;5.18;;;;;;;7.97;66.93;97774.97;4921679;28;20624;-75
2023/02/01 08:22:18;;;;;;;13.60;4.85;;;;;;;8.02;66.56;97785.50;4945865;28;20223;-75
2023/02/01 08:24:44;;;;;;;11.88;4.90;;;;;;;7.98;66.59;97782.53;4941908;28;20629;-75
2023/02/01 08:27:09;;;;;;;13.15;4.60;;;;;;;7.93;66.45;97779.78;4924244;28;20216;-75
2023/02/01 08:29:34;;;;;;;16.08;4.85;;;;;;;8.06;66.18;97779.69;4911935;28;20282;-76
2023/02/01 08:32:00;;;;;;;12.38;3.65;;;;;;;8.15;65.63;97785.38;4927416;28;20290;-75
2023/02/01 08:34:25;;;;;;;11.98;4.45;;;;;;;8.03;65.37;97790.47;4909350;28;20386;-76
2023/02/01 08:36:57;;;;;;;16.42;5.40;;;;;;;8.07;64.87;97780.47;4933023;28;20278;-76
2023/02/01 08:39:22;;;;;;;10.50;3.90;;;;;;;8.02;65.32;97786.31;4930800;28;20106;-77
2023/02/01 08:42:50;;;;;;;13.45;4.13;;;;;;;8.10;64.80;97792.22;4929401;28;20930;-75
2023/02/01 08:44:33;;;;;;;10.75;3.42;;;;;;;8.29;64.61;97791.25;4944902;28;20111;-74
2023/02/01 08:46:58;;;;;;;10.52;4.35;;;;;;;8.32;64.18;97785.63;4923618;28;20105;-75
2023/02/01 08:49:23;;;;;;;10.23;3.05;;;;;;;8.46;64.19;97783.72;4925293;28;20037;-75
2023/02/01 08:51:49;;;;;;;7.45;4.18;;;;;;;8.34;64.80;97786.22;4943508;28;20040;-75
2023/02/01 08:54:14;;;;;;;11.68;4.75;;;;;;;8.46;64.10;97788.13;4948666;28;20037;-75
2023/02/01 08:56:39;;;;;;;9.55;4.50;;;;;;;8.48;64.20;97783.53;4951443;28;20056;-75
2023/02/01 08:59:05;;;;;;;10.50;3.05;;;;;;;8.27;64.17;97780.28;4950397;28;20090;-75
2023/02/01 09:01:30;;;;;;;11.85;3.40;;;;;;;8.44;63.92;97783.94;4942534;28;20037;-77
2023/02/01 09:03:56;;;;;;;13.35;3.97;;;;;;;8.61;63.53;97785.97;4942460;28;20037;-77
2023/02/01 09:06:21;;;;;;;13.13;3.83;;;;;;;8.44;64.14;97785.75;4925062;28;20579;-77
2023/02/01 09:08:46;;;;;;;11.73;3.00;;;;;;;8.39;63.68;97801.16;4939615;28;20144;-77
2023/02/01 09:11:17;;;;;;;11.45;3.13;;;;;;;8.23;64.47;97779.16;4941609;28;20049;-74
2023/02/01 09:13:46;;;;;;;8.32;2.85;;;;;;;8.22;64.66;97780.13;4945561;28;20878;-76
2023/02/01 09:16:12;;;;;;;8.95;3.95;;;;;;;8.47;63.62;97784.53;4948481;28;20038;-76
2023/02/01 09:18:37;;;;;;;9.35;3.55;;;;;;;8.40;63.75;97785.38;4941680;28;20618;-77
2023/02/01 09:21:06;;;;;;;7.15;2.90;;;;;;;8.49;63.35;97788.50;4940871;28;20060;-74
2023/02/01 09:23:32;;;;;;;14.82;3.55;;;;;;;8.43;62.98;97789.34;4930189;28;20258;-75
2023/02/01 09:26:03;;;;;;;7.38;2.85;;;;;;;8.57;63.05;97798.59;4925465;28;20674;-75
2023/02/01 09:28:28;;;;;;;12.32;2.92;;;;;;;8.48;62.64;97796.50;4929413;28;20038;-76
2023/02/01 09:30:58;;;;;;;13.60;3.45;;;;;;;8.67;62.25;97800.72;4941608;28;20060;-75
2023/02/01 09:33:24;;;;;;;13.27;3.00;;;;;;;8.42;62.69;97808.50;4944956;28;20025;-75
2023/02/01 09:35:49;;;;;;;9.75;2.63;;;;;;;8.50;62.90;97810.03;4944035;28;20152;-77
2023/02/01 09:38:15;;;;;;;10.10;3.58;;;;;;;8.49;62.58;97821.44;4929887;28;20036;-77
2023/02/01 09:40:43;;;;;;;11.65;3.17;;;;;;;8.52;62.78;97834.78;4912502;28;20028;-77
2023/02/01 09:43:25;;;;;;;14.02;3.10;;;;;;;8.47;62.58;97845.03;4908416;28;20022;-77
2023/02/01 09:46:18;;;;;;;8.82;2.70;;;;;;;8.61;62.18;97856.84;4936376;28;20116;-77
2023/02/01 09:48:45;;;;;;;12.00;2.80;;;;;;;8.17;62.76;97850.03;4922674;28;20833;-75
2023/02/01 09:51:17;;;;;;;13.10;2.88;;;;;;;8.25;62.88;97852.34;4933145;28;20169;-76
2023/02/01 09:53:45;;;;;;;12.90;2.90;;;;;;;8.44;62.68;97864.38;4952212;28;20757;-77
2023/02/01 09:56:14;;;;;;;13.27;2.92;;;;;;;8.04;62.54;97851.72;4915290;28;20596;-76
2023/02/01 09:58:48;;;;;;;9.65;2.67;;;;;;;8.12;62.29;97850.66;4929129;28;20286;-76
2023/02/01 10:01:16;;;;;;;11.55;1.98;;;;;;;8.43;61.87;97857.63;4915915;28;20034;-75
2023/02/01 10:03:42;;;;;;;10.80;3.58;;;;;;;8.20;61.87;97859.97;4938986;28;20979;-74
2023/02/01 10:06:23;;;;;;;10.48;2.83;;;;;;;8.33;61.80;97849.50;4949332;28;20068;-74
2023/02/01 10:08:57;;;;;;;10.65;2.47;;;;;;;8.41;61.41;97853.63;4953130;28;20122;-76
2023/02/01 10:11:47;;;;;;;10.57;3.20;;;;;;;8.43;61.16;97846.44;4949483;28;20130;-76
2023/02/01 10:14:31;;;;;;;9.70;2.97;;;;;;;8.48;61.18;97862.16;4934562;28;20737;-77
2023/02/01 10:17:05;;;;;;;7.95;2.20;;;;;;;8.30;62.19;97860.31;4934138;28;20029;-76
2023/02/01 10:19:49;;;;;;;11.40;2.70;;;;;;;8.32;61.50;97854.91;4948676;28;20180;-76
2023/02/01 10:22:23;;;;;;;12.57;2.55;;;;;;;8.48;60.93;97858.78;4930068;28;20242;-75
2023/02/01 10:25:14;;;;;;;16.20;3.30;;;;;;;8.27;61.67;97852.94;4945641;28;20303;-75
2023/02/01 10:27:40;;;;;;;13.02;3.63;;;;;;;8.32;60.93;97873.84;4922337;28;20920;-75
2023/02/01 10:30:38;;;;;;;19.80;4.47;;;;;;;8.69;60.49;97884.34;4932403;28;20034;-75
2023/02/01 10:33:17;;;;;;;17.02;2.92;;;;;;;8.56;60.91;97871.50;4938772;28;20281;-75
2023/02/01 10:35:44;;;;;;;13.07;3.55;;;;;;;8.58;61.17;97869.47;4911341;28;20183;-75
2023/02/01 10:38:22;;;;;;;9.98;2.67;;;;;;;8.69;60.81;97873.97;4923026;28;20204;-75
2023/02/01 10:40:48;;;;;;;11.07;3.15;;;;;;;8.47;61.60;97872.78;4922577;28;20410;-75
2023/02/01 10:43:13;;;;;;;10.85;2.85;;;;;;;8.33;61.38;97866.84;4928468;28;20176;-75
2023/02/01 10:45:39;;;;;;;11.68;2.97;;;;;;;8.26;60.72;97861.75;4944745;28;20278;-75
2023/02/01 10:48:05;;;;;;;11.48;3.10;;;;;;;8.42;60.90;97863.00;4930993;28;20628;-74
2023/02/01 10:50:55;;;;;;;14.48;3.38;;;;;;;8.44;61.14;97856.59;4944587;28;20194;-76
2023/02/01 10:53:49;;;;;;;12.57;2.60;;;;;;;8.56;60.79;97853.31;4946647;28;20168;-75
2023/02/01 10:56:22;;;;;;;9.48;2.63;;;;;;;8.54;61.39;97837.97;4928800;28;20300;-75
2023/02/01 10:58:48;;;;;;;8.98;2.15;;;;;;;8.47;61.45;97842.41;4901567;28;20229;-75
2023/02/01 11:01:21;;;;;;;10.98;2.53;;;;;;;8.32;61.56;97832.34;4922138;28;20188;-76
2023/02/01 11:03:56;;;;;;;12.50;2.58;;;;;;;8.50;60.42;97836.00;4946806;28;20161;-75
2023/02/01 11:06:21;;;;;;;9.45;1.88;;;;;;;8.53;60.22;97832.97;4927656;28;20159;-74
2023/02/01 11:08:57;;;;;;;8.48;2.78;;;;;;;8.74;59.84;97822.19;4941054;28;20300;-76
2023/02/01 11:11:24;;;;;;;7.70;2.50;;;;;;;8.67;60.13;97808.50;4929442;28;20250;-76
2023/02/01 11:13:59;;;;;;;18.13;3.75;;;;;;;8.79;59.62;97805.94;4944971;28;20263;-75
2023/02/01 11:16:35;;;;;;;;;;;;;;;8.78;59.72;97807.75;4913307;28;20113;-76
2023/02/01 11:19:00;;;;;;;14.98;3.33;;;;;;;8.59;60.13;97795.78;4928977;28;20087;-75
2023/02/01 11:21:26;;;;;;;12.25;3.15;;;;;;;8.55;59.38;97802.41;4943850;28;20276;-75
2023/02/01 11:23:51;;;;;;;6.85;2.00;;;;;;;8.51;60.37;97798.66;4941947;28;20293;-75
2023/02/01 11:26:25;;;;;;;13.77;3.75;;;;;;;8.55;59.15;97797.22;4909306;28;20661;-75
2023/02/01 11:28:58;;;;;;;10.27;2.55;;;;;;;8.60;60.03;97805.16;4940435;28;20279;-75
2023/02/01 11:31:24;;;;;;;8.77;2.22;;;;;;;8.55;60.34;97799.81;4924289;28;20185;-77
2023/02/01 11:33:54;;;;;;;11.95;2.25;;;;;;;8.59;59.92;97798.38;4928147;28;20411;-77
2023/02/01 11:36:25;;;;;;;10.73;2.60;;;;;;;8.27;60.19;97805.44;4928356;28;20485;-77
2023/02/01 11:38:54;;;;;;;11.77;2.50;;;;;;;8.42;60.31;97804.13;4927233;28;20329;-77
2023/02/01 11:41:25;;;;;;;14.90;2.88;;;;;;;8.44;59.57;97811.72;4942798;28;20187;-77
2023/02/01 11:43:59;;;;;;;9.60;1.90;;;;;;;8.52;59.79;97816.63;4944066;28;20274;-74
2023/02/01 11:46:33;;;;;;;12.63;2.80;;;;;;;8.44;59.13;97817.69;4928444;28;20201;-75
2023/02/01 11:49:24;;;;;;;12.00;2.38;;;;;;;8.63;58.97;97807.31;4943730;28;20211;-75
2023/02/01 11:52:12;;;;;;;4.82;1.70;;;;;;;8.65;58.73;97807.88;4902407;28;20603;-75
2023/02/01 11:54:56;;;;;;;5.50;2.28;;;;;;;8.69;58.64;97803.88;4912758;28;20535;-75
2023/02/01 11:57:26;;;;;;;7.35;3.40;;;;;;;8.64;59.13;97801.13;4939867;28;20716;-76
2023/02/01 12:00:03;;;;;;;9.65;2.38;;;;;;;8.61;59.25;97798.97;4926634;28;20239;-75
2023/02/01 12:02:52;;;;;;;9.63;3.03;;;;;;;8.68;58.48;97796.31;4923924;28;20250;-75
2023/02/01 12:05:24;;;;;;;11.68;2.20;;;;;;;8.72;58.58;97798.25;4944110;28;20666;-75
2023/02/01 12:07:58;;;;;;;6.63;2.20;;;;;;;8.72;58.32;97795.66;4943066;28;20165;-75